Merced Regional Macready Field
KMCE : now visible

Airfield :











YOU CAN JOIN US ON...

 
LOGIN :

Register | Disclaimer

   EN    FR    IT 

 









Legend :    VFR   Marginal VFR   IFR   Intensive IFR   Very Intensive IFR
Visi :
Ceiling :
>= 8 km
>= 3000ft
5 to 8 km
1000 to 3000 ft
1500m to 5 km
500 to 1000 ft
800 to 1500m
200 to 500 ft
< 800m
< 200 ft
Symbols :   Thunderstorms  Fog  Heavy snow  Heavy precipitations  Wind > 20 kt






- Airport Elevation : 155 ft
- IATA code : MCE


KMCE - Merced Regional Macready Field

CURRENT METAR :
  • 010153Z AUTO 33011G17KT 10SM CLR 21/09 A3001 RMK AO2 SLP161 T02060094

EXPIRED METARs :
  • 010053Z AUTO 32009KT 10SM CLR 22/11 A3002 RMK AO2 SLP164 T02220106
  • 312353Z AUTO 34012KT 10SM CLR 23/10 A3003 RMK AO2 SLP169 T02330100 10239 20178 56027

TAF KMCE
Valid from the 01 at 00:00 until the 02 at 00:00 UTC


312320Z 0100/0124 32010KT P6SM FEW250



MET'MAP, your aeronautical weather chart ! - Copyright ORBIFLY December 2007 - Disclaimer

ORBIFLY MET'MAP TEAM :

Programming & Development : Alexandra Zaïnal
Concept & original design : Baudouin d'Aumeries
Assistance for programming : Marc-Olivier Méhu
Technical & hardware support : Manuel Goepfert

Contact : metmap@orbifly.com




SOURCES & CREDITS :

   NOAA       Earth
Advisory